createdAt,value
2019-05-23T00:01:34.432Z,6.98
2019-05-23T00:04:14.655Z,7.03
2019-05-23T00:06:39.564Z,6.98
2019-05-23T00:09:05.606Z,6.58
2019-05-23T00:11:46.958Z,6.15
2019-05-23T00:14:33.238Z,5.97
2019-05-23T00:16:56.857Z,6.00
2019-05-23T00:19:20.700Z,6.28
2019-05-23T00:21:44.247Z,6.47
2019-05-23T00:24:08.367Z,6.64
2019-05-23T00:26:34.703Z,6.79
2019-05-23T00:29:09.656Z,6.87
2019-05-23T00:31:26.136Z,6.80
2019-05-23T00:33:50.351Z,6.77
2019-05-23T00:36:15.991Z,6.77
2019-05-23T00:38:40.268Z,6.76
2019-05-23T00:41:04.918Z,6.67
2019-05-23T00:43:29.607Z,6.77
2019-05-23T00:45:53.945Z,6.84
2019-05-23T00:48:18.520Z,6.92
2019-05-23T00:50:42.772Z,6.81
2019-05-23T00:53:07.108Z,6.71
2019-05-23T00:55:30.727Z,6.62
2019-05-23T00:57:55.991Z,6.52
2019-05-23T01:00:23.454Z,6.23
2019-05-23T01:02:46.957Z,6.14
2019-05-23T01:05:12.699Z,5.97
2019-05-23T01:07:36.476Z,5.89
2019-05-23T01:10:00.879Z,5.87
2019-05-23T01:12:25.160Z,5.81
2019-05-23T01:14:49.253Z,5.79
2019-05-23T01:17:12.932Z,5.67
2019-05-23T01:19:37.109Z,5.56
2019-05-23T01:22:02.494Z,5.60
2019-05-23T01:24:34.066Z,5.64
2019-05-23T01:26:58.418Z,5.84
2019-05-23T01:29:24.204Z,5.95
2019-05-23T01:31:49.427Z,6.08
2019-05-23T01:34:14.833Z,5.89
2019-05-23T01:36:39.589Z,6.03
2019-05-23T01:39:05.684Z,6.19
2019-05-23T01:41:30.640Z,6.27
2019-05-23T01:43:55.346Z,6.04
2019-05-23T01:46:20.201Z,5.90
2019-05-23T01:48:43.725Z,5.79
2019-05-23T01:51:09.527Z,6.02
2019-05-23T01:53:33.579Z,6.10
2019-05-23T01:55:57.287Z,6.13
2019-05-23T01:58:20.888Z,6.25
2019-05-23T02:00:44.585Z,6.41
2019-05-23T02:03:08.852Z,6.46
2019-05-23T02:05:33.361Z,6.27
2019-05-23T02:07:57.455Z,6.10
2019-05-23T02:10:21.390Z,6.19
2019-05-23T02:12:45.257Z,6.24
2019-05-23T02:15:10.014Z,6.28
2019-05-23T02:17:33.710Z,6.33
2019-05-23T02:19:57.273Z,6.24
2019-05-23T02:22:21.713Z,6.18
2019-05-23T02:24:46.682Z,5.90
2019-05-23T02:27:10.697Z,5.86
2019-05-23T02:29:34.821Z,6.03
2019-05-23T02:31:59.961Z,6.00
2019-05-23T02:34:25.657Z,5.94
2019-05-23T02:36:50.731Z,6.02
2019-05-23T02:39:32.932Z,6.04
2019-05-23T02:42:00.863Z,6.07
2019-05-23T02:44:28.268Z,6.12
2019-05-23T02:47:00.138Z,6.09
2019-05-23T02:49:25.428Z,6.06
2019-05-23T02:51:49.935Z,6.08
2019-05-23T02:54:14.032Z,6.06
2019-05-23T02:56:38.776Z,6.08
2019-05-23T02:59:05.391Z,6.01
2019-05-23T03:01:36.301Z,6.00
2019-05-23T03:04:04.215Z,5.98
2019-05-23T03:06:28.345Z,5.94
2019-05-23T03:08:52.587Z,5.93
2019-05-23T03:11:29.180Z,5.85
2019-05-23T03:13:53.733Z,5.51
2019-05-23T03:16:24.415Z,5.18
2019-05-23T03:18:51.471Z,5.07
2019-05-23T03:21:37.556Z,5.04
2019-05-23T03:24:01.833Z,4.97
2019-05-23T03:26:40.840Z,4.91
2019-05-23T03:29:05.133Z,4.93
2019-05-23T03:31:46.677Z,5.10
2019-05-23T03:34:12.533Z,5.18
2019-05-23T03:36:37.647Z,5.10
2019-05-23T03:39:02.911Z,5.26
2019-05-23T03:41:28.331Z,5.38
2019-05-23T03:43:52.900Z,5.54
2019-05-23T03:46:24.108Z,5.57
2019-05-23T03:48:48.107Z,5.29
2019-05-23T03:51:12.263Z,5.12
2019-05-23T03:53:35.923Z,5.04
2019-05-23T03:55:59.547Z,5.05
2019-05-23T03:58:27.078Z,5.08
2019-05-23T04:00:52.873Z,5.13
2019-05-23T04:03:16.515Z,5.39
2019-05-23T04:05:40.829Z,5.60
2019-05-23T04:08:06.228Z,5.77
2019-05-23T04:10:30.372Z,5.94
2019-05-23T04:12:54.651Z,6.10
2019-05-23T04:15:18.439Z,6.14
2019-05-23T04:17:42.455Z,6.18
2019-05-23T04:20:08.999Z,6.31
2019-05-23T04:22:32.835Z,6.46
2019-05-23T04:25:01.701Z,6.45
2019-05-23T04:27:22.326Z,6.48
2019-05-23T04:29:45.855Z,6.50
2019-05-23T04:32:09.957Z,6.32
2019-05-23T04:34:33.756Z,6.38
2019-05-23T04:36:58.146Z,6.41
2019-05-23T04:39:21.990Z,6.71
2019-05-23T04:41:45.622Z,7.02
2019-05-23T04:44:10.970Z,6.74
2019-05-23T04:46:35.622Z,6.92
2019-05-23T04:48:59.969Z,6.96
2019-05-23T04:51:24.842Z,7.16
2019-05-23T04:53:48.692Z,7.40
2019-05-23T04:56:13.580Z,7.28
2019-05-23T04:58:37.683Z,7.46
2019-05-23T05:01:01.601Z,7.38
2019-05-23T05:03:25.290Z,7.62
2019-05-23T05:05:49.423Z,7.64
2019-05-23T05:08:13.088Z,7.75
2019-05-23T05:10:36.712Z,7.89
2019-05-23T05:13:01.070Z,8.19
2019-05-23T05:15:24.976Z,8.32
2019-05-23T05:17:48.622Z,8.56
2019-05-23T05:20:13.260Z,8.44
2019-05-23T05:22:37.204Z,8.36
2019-05-23T05:25:01.027Z,8.67
2019-05-23T05:27:25.306Z,8.93
2019-05-23T05:29:48.855Z,9.39
2019-05-23T05:32:14.019Z,9.61
2019-05-23T05:34:37.856Z,9.72
2019-05-23T05:37:02.002Z,9.66
2019-05-23T05:39:25.597Z,9.97
2019-05-23T05:41:49.602Z,10.27
2019-05-23T05:44:13.820Z,10.28
2019-05-23T05:46:37.404Z,10.14
2019-05-23T05:49:00.997Z,10.18
2019-05-23T05:51:24.805Z,10.22
2019-05-23T05:53:48.792Z,9.81
2019-05-23T05:56:12.644Z,10.04
2019-05-23T05:58:36.146Z,10.20
2019-05-23T06:01:03.870Z,10.01
2019-05-23T06:03:27.739Z,10.42
2019-05-23T06:06:01.924Z,10.63
2019-05-23T06:08:27.066Z,10.76
2019-05-23T06:10:50.689Z,10.66
2019-05-23T06:13:15.218Z,10.82
2019-05-23T06:15:38.847Z,11.04
2019-05-23T06:18:02.825Z,11.25
2019-05-23T06:20:26.949Z,11.46
2019-05-23T06:22:52.143Z,11.47
2019-05-23T06:25:16.254Z,11.14
2019-05-23T06:27:41.070Z,11.23
2019-05-23T06:30:09.243Z,11.52
2019-05-23T06:32:32.764Z,11.47
2019-05-23T06:34:56.580Z,11.46
2019-05-23T06:37:21.756Z,11.41
2019-05-23T06:39:45.334Z,11.51
2019-05-23T06:42:09.293Z,11.50
2019-05-23T06:44:33.752Z,11.54
2019-05-23T06:46:57.591Z,11.73
2019-05-23T06:49:21.182Z,11.73
2019-05-23T06:51:44.785Z,11.78
2019-05-23T06:54:09.737Z,11.87
2019-05-23T06:56:33.710Z,11.96
2019-05-23T06:58:57.236Z,12.30
2019-05-23T07:01:20.912Z,12.35
2019-05-23T07:03:45.935Z,12.54
2019-05-23T07:06:11.671Z,12.27
2019-05-23T07:08:35.306Z,12.77
2019-05-23T07:10:59.636Z,12.60
2019-05-23T07:13:26.682Z,12.88
2019-05-23T07:15:50.408Z,12.61
2019-05-23T07:18:14.154Z,13.06
2019-05-23T07:20:38.046Z,13.15
2019-05-23T07:23:02.368Z,13.72
2019-05-23T07:25:26.641Z,14.24
2019-05-23T07:27:50.513Z,14.02
2019-05-23T07:30:23.058Z,14.01
2019-05-23T07:32:46.719Z,13.76
2019-05-23T07:35:10.491Z,14.03
2019-05-23T07:37:34.069Z,14.15
2019-05-23T07:39:57.841Z,14.63
2019-05-23T07:42:21.909Z,14.63
2019-05-23T07:44:48.687Z,14.55
2019-05-23T07:47:13.406Z,14.94
2019-05-23T07:49:37.132Z,14.92
2019-05-23T07:52:00.665Z,15.27
2019-05-23T07:54:28.945Z,14.88
2019-05-23T07:56:53.008Z,14.82
2019-05-23T07:59:17.229Z,15.07
2019-05-23T08:01:44.412Z,15.12
2019-05-23T08:04:20.573Z,15.52
2019-05-23T08:06:34.257Z,15.65
2019-05-23T08:08:57.834Z,15.45
2019-05-23T08:11:22.582Z,15.31
2019-05-23T08:13:46.303Z,15.53
2019-05-23T08:16:09.895Z,15.45
2019-05-23T08:18:35.172Z,15.23
2019-05-23T08:20:58.694Z,15.79
2019-05-23T08:23:22.449Z,15.85
2019-05-23T08:25:46.013Z,16.27
2019-05-23T08:28:09.646Z,16.01
2019-05-23T08:30:33.167Z,16.58
2019-05-23T08:32:56.769Z,16.96
2019-05-23T08:35:20.999Z,16.78
2019-05-23T08:37:46.264Z,16.78
2019-05-23T08:40:12.885Z,16.80
2019-05-23T08:42:37.445Z,17.14
2019-05-23T08:45:02.772Z,16.97
2019-05-23T08:47:26.988Z,17.15
2019-05-23T08:49:50.716Z,16.85
2019-05-23T08:52:14.404Z,17.08
2019-05-23T08:54:38.090Z,16.97
2019-05-23T08:57:01.876Z,17.15
2019-05-23T08:59:25.412Z,17.68
2019-05-23T09:01:49.390Z,17.86
2019-05-23T09:04:12.921Z,17.57
2019-05-23T09:06:37.207Z,17.69
2019-05-23T09:09:01.593Z,17.39
2019-05-23T09:11:26.085Z,17.28
2019-05-23T09:13:49.710Z,17.76
2019-05-23T09:16:13.387Z,17.60
2019-05-23T09:18:36.954Z,17.65
2019-05-23T09:21:00.583Z,17.88
2019-05-23T09:23:24.251Z,18.07
2019-05-23T09:25:47.899Z,18.66
2019-05-23T09:28:12.944Z,18.65
2019-05-23T09:30:37.293Z,18.70
2019-05-23T09:33:01.427Z,18.77
2019-05-23T09:35:25.075Z,18.91
2019-05-23T09:37:48.989Z,18.89
2019-05-23T09:40:12.824Z,18.59
2019-05-23T09:42:36.491Z,19.00
2019-05-23T09:45:00.296Z,19.37
2019-05-23T09:47:23.823Z,19.93
2019-05-23T09:49:53.895Z,20.61
2019-05-23T09:52:13.277Z,20.70
2019-05-23T09:54:36.980Z,21.01
2019-05-23T09:57:01.040Z,21.11
2019-05-23T09:59:25.252Z,20.72
2019-05-23T10:01:49.612Z,21.03
2019-05-23T10:04:14.287Z,20.43
2019-05-23T10:06:37.893Z,20.08
2019-05-23T10:09:02.096Z,19.98
2019-05-23T10:11:25.697Z,20.55
2019-05-23T10:13:49.233Z,20.02
2019-05-23T10:16:13.207Z,19.10
2019-05-23T10:18:37.001Z,19.64
2019-05-23T10:21:00.800Z,19.18
2019-05-23T10:23:24.576Z,19.50
2019-05-23T10:25:48.208Z,19.19
2019-05-23T10:28:12.229Z,19.07
2019-05-23T10:30:35.921Z,18.98
2019-05-23T10:32:59.694Z,19.57
2019-05-23T10:35:24.762Z,19.61
2019-05-23T10:37:48.706Z,20.06
2019-05-23T10:40:13.763Z,20.07
2019-05-23T10:42:38.088Z,20.14
2019-05-23T10:45:01.863Z,20.12
2019-05-23T10:47:25.940Z,20.01
2019-05-23T10:49:49.738Z,20.51
2019-05-23T10:52:13.481Z,20.65
2019-05-23T10:54:37.031Z,20.81
2019-05-23T10:57:00.676Z,21.01
2019-05-23T10:59:24.690Z,21.82
2019-05-23T11:01:49.339Z,21.45
2019-05-23T11:04:13.261Z,22.30
2019-05-23T11:06:36.848Z,22.88
2019-05-23T11:09:01.289Z,23.18
2019-05-23T11:11:24.995Z,22.77
2019-05-23T11:13:48.859Z,23.12
2019-05-23T11:16:12.459Z,23.03
2019-05-23T11:18:36.135Z,23.23
2019-05-23T11:20:59.750Z,22.88
2019-05-23T11:23:24.886Z,22.88
2019-05-23T11:25:48.516Z,23.04
2019-05-23T11:28:12.459Z,22.44
2019-05-23T11:30:40.650Z,22.99
2019-05-23T11:33:04.228Z,23.10
2019-05-23T11:35:28.185Z,23.85
2019-05-23T11:37:51.818Z,24.26
2019-05-23T11:40:15.581Z,23.33
2019-05-23T11:42:39.234Z,23.33
2019-05-23T11:45:02.865Z,21.85
2019-05-23T11:47:30.841Z,21.47
2019-05-23T11:49:52.403Z,20.91
2019-05-23T11:52:16.518Z,21.91
2019-05-23T11:54:40.510Z,22.56
2019-05-23T11:57:06.079Z,22.16
2019-05-23T11:59:29.695Z,21.45
2019-05-23T12:01:55.751Z,21.30
2019-05-23T12:04:20.912Z,21.27
2019-05-23T12:06:55.419Z,21.16
2019-05-23T12:09:15.314Z,20.78
2019-05-23T12:11:42.528Z,21.09
2019-05-23T12:14:05.655Z,22.17
2019-05-23T12:16:29.960Z,23.57
2019-05-23T12:18:53.991Z,23.81
2019-05-23T12:21:18.090Z,23.23
2019-05-23T12:23:41.760Z,23.01
2019-05-23T12:26:05.366Z,22.93
2019-05-23T12:28:29.472Z,22.45
2019-05-23T12:30:53.010Z,23.21
2019-05-23T12:33:16.688Z,22.97
2019-05-23T12:35:40.219Z,23.03
2019-05-23T12:38:04.246Z,22.54
2019-05-23T12:40:28.016Z,23.00
2019-05-23T12:42:51.568Z,22.38
2019-05-23T12:45:15.883Z,22.79
2019-05-23T12:47:54.353Z,22.48
2019-05-23T12:50:19.501Z,22.83
2019-05-23T12:52:43.043Z,22.60
2019-05-23T12:55:06.820Z,23.60
2019-05-23T12:57:30.435Z,24.74
2019-05-23T12:59:54.020Z,26.20
2019-05-23T13:02:19.212Z,27.00
2019-05-23T13:04:43.467Z,25.47
2019-05-23T13:07:07.469Z,24.00
2019-05-23T13:09:31.036Z,23.27
2019-05-23T13:11:55.136Z,23.13
2019-05-23T13:14:18.717Z,23.34
2019-05-23T13:16:42.926Z,23.02
2019-05-23T13:19:06.504Z,22.85
2019-05-23T13:21:30.311Z,21.99
2019-05-23T13:23:53.851Z,21.59
2019-05-23T13:26:18.583Z,21.69
2019-05-23T13:28:42.170Z,23.20
2019-05-23T13:31:05.817Z,23.31
2019-05-23T13:33:29.421Z,22.10
2019-05-23T13:35:53.192Z,22.10
2019-05-23T13:38:17.485Z,22.20
2019-05-23T13:40:41.069Z,21.42
2019-05-23T13:43:08.376Z,21.49
2019-05-23T13:45:30.599Z,21.40
2019-05-23T13:47:54.312Z,21.25
2019-05-23T13:50:19.122Z,21.52
2019-05-23T13:52:43.177Z,21.28
2019-05-23T13:55:07.594Z,21.73
2019-05-23T13:57:31.466Z,23.13
2019-05-23T13:59:55.073Z,22.93
2019-05-23T14:02:19.111Z,22.75
2019-05-23T14:04:43.051Z,23.58
2019-05-23T14:07:08.504Z,24.30
2019-05-23T14:09:33.151Z,25.62
2019-05-23T14:12:20.228Z,27.16
2019-05-23T14:14:22.737Z,27.40
2019-05-23T14:16:59.884Z,26.40
2019-05-23T14:19:23.461Z,26.09
2019-05-23T14:21:47.150Z,27.02
2019-05-23T14:24:10.749Z,28.08
2019-05-23T14:26:35.990Z,29.03
2019-05-23T14:28:59.969Z,28.54
2019-05-23T14:31:23.809Z,27.53
2019-05-23T14:33:49.072Z,26.97
2019-05-23T14:36:23.577Z,25.74
2019-05-23T14:38:47.360Z,25.43
2019-05-23T14:41:11.008Z,24.12
2019-05-23T14:43:35.553Z,23.00
2019-05-23T14:46:04.745Z,22.96
2019-05-23T14:48:46.505Z,23.48
2019-05-23T14:51:12.595Z,22.43
2019-05-23T14:53:40.627Z,22.91
2019-05-23T14:56:04.265Z,22.45
2019-05-23T14:58:28.627Z,22.41
2019-05-23T15:00:53.134Z,22.02
2019-05-23T15:03:17.771Z,22.12
2019-05-23T15:05:41.505Z,22.33
2019-05-23T15:08:05.125Z,22.10
2019-05-23T15:10:29.262Z,21.97
2019-05-23T15:12:52.769Z,22.12
2019-05-23T15:15:16.819Z,22.14
2019-05-23T15:17:40.328Z,22.06
2019-05-23T15:20:06.735Z,22.04
2019-05-23T15:22:30.385Z,21.87
2019-05-23T15:24:54.291Z,21.27
2019-05-23T15:27:18.073Z,20.88
2019-05-23T15:29:41.643Z,20.91
2019-05-23T15:32:05.257Z,21.12
2019-05-23T15:34:29.258Z,20.77
2019-05-23T15:36:52.800Z,20.80
2019-05-23T15:39:18.221Z,20.99
2019-05-23T15:41:41.877Z,21.10
2019-05-23T15:44:22.316Z,21.33
2019-05-23T15:46:31.404Z,21.17
2019-05-23T15:48:55.204Z,21.13
2019-05-23T15:51:20.482Z,21.38
2019-05-23T15:53:57.830Z,21.94
2019-05-23T15:56:28.024Z,21.79
2019-05-23T15:58:49.898Z,21.28
2019-05-23T16:01:15.177Z,21.71
2019-05-23T16:03:52.574Z,21.53
2019-05-23T16:06:17.874Z,22.01
2019-05-23T16:08:43.372Z,22.27
2019-05-23T16:11:07.494Z,22.58
2019-05-23T16:13:31.229Z,22.54
2019-05-23T16:15:54.763Z,22.55
2019-05-23T16:18:18.871Z,22.29
2019-05-23T16:20:42.507Z,22.12
2019-05-23T16:23:06.203Z,22.08
2019-05-23T16:25:29.748Z,22.27
2019-05-23T16:27:54.404Z,22.34
2019-05-23T16:30:18.571Z,22.02
2019-05-23T16:32:42.211Z,22.02
2019-05-23T16:35:07.725Z,21.73
2019-05-23T16:37:31.324Z,21.47
2019-05-23T16:39:55.232Z,21.50
2019-05-23T16:42:19.056Z,21.38
2019-05-23T16:44:42.635Z,21.29
2019-05-23T16:47:06.270Z,21.03
2019-05-23T16:49:29.786Z,20.91
2019-05-23T16:51:54.371Z,20.91
2019-05-23T16:54:20.042Z,21.14
2019-05-23T16:56:57.184Z,21.60
2019-05-23T16:59:25.083Z,22.84
2019-05-23T17:02:06.303Z,23.83
2019-05-23T17:04:41.640Z,24.31
2019-05-23T17:07:13.108Z,24.49
2019-05-23T17:09:38.273Z,23.39
2019-05-23T17:12:20.716Z,22.45
2019-05-23T17:14:45.874Z,21.85
2019-05-23T17:17:17.050Z,21.09
2019-05-23T17:19:44.973Z,21.10
2019-05-23T17:22:26.465Z,21.23
2019-05-23T17:24:54.804Z,21.64
2019-05-23T17:27:36.048Z,21.32
2019-05-23T17:30:01.527Z,20.64
2019-05-23T17:32:29.414Z,20.45
2019-05-23T17:34:53.252Z,20.47
2019-05-23T17:37:17.549Z,20.32
2019-05-23T17:39:42.781Z,20.29
2019-05-23T17:42:06.665Z,20.31
2019-05-23T17:44:30.777Z,20.19
2019-05-23T17:46:55.187Z,20.32
2019-05-23T17:49:19.000Z,20.02
2019-05-23T17:51:42.671Z,19.62
2019-05-23T17:54:06.347Z,19.51
2019-05-23T17:56:30.018Z,19.45
2019-05-23T17:58:54.611Z,19.37
2019-05-23T18:01:18.863Z,19.22
2019-05-23T18:03:42.422Z,19.16
2019-05-23T18:06:06.251Z,19.09
2019-05-23T18:08:30.977Z,19.08
2019-05-23T18:10:55.250Z,18.97
2019-05-23T18:13:19.851Z,18.75
2019-05-23T18:15:43.738Z,18.68
2019-05-23T18:18:07.983Z,18.59
2019-05-23T18:20:31.656Z,18.48
2019-05-23T18:22:56.498Z,18.42
2019-05-23T18:25:21.735Z,18.40
2019-05-23T18:27:45.914Z,18.35
2019-05-23T18:30:12.088Z,18.34
2019-05-23T18:32:36.130Z,18.31
2019-05-23T18:35:00.166Z,18.30
2019-05-23T18:37:23.842Z,18.26
2019-05-23T18:39:48.070Z,18.22
2019-05-23T18:42:31.785Z,18.20
2019-05-23T18:44:55.330Z,18.13
2019-05-23T18:47:23.281Z,18.02
2019-05-23T18:49:47.459Z,17.89
2019-05-23T18:52:11.234Z,17.84
2019-05-23T18:54:34.993Z,17.75
2019-05-23T18:56:58.801Z,17.63
2019-05-23T18:59:22.628Z,17.52
2019-05-23T19:01:46.662Z,17.45
2019-05-23T19:04:10.615Z,17.34
2019-05-23T19:06:34.303Z,17.26
2019-05-23T19:08:57.931Z,17.15
2019-05-23T19:11:22.487Z,17.02
2019-05-23T19:13:46.541Z,16.94
2019-05-23T19:16:10.229Z,16.82
2019-05-23T19:18:34.907Z,16.65
2019-05-23T19:20:59.362Z,16.61
2019-05-23T19:23:24.561Z,16.50
2019-05-23T19:25:49.474Z,16.39
2019-05-23T19:28:13.421Z,16.27
2019-05-23T19:30:36.994Z,16.17
2019-05-23T19:33:00.757Z,16.06
2019-05-23T19:35:24.824Z,16.03
2019-05-23T19:37:49.451Z,15.89
2019-05-23T19:40:13.846Z,15.79
2019-05-23T19:42:37.700Z,15.70
2019-05-23T19:45:01.257Z,15.63
2019-05-23T19:47:25.180Z,15.60
2019-05-23T19:49:48.813Z,15.47
2019-05-23T19:52:13.092Z,15.34
2019-05-23T19:54:36.991Z,15.26
2019-05-23T19:57:00.638Z,15.22
2019-05-23T19:59:24.670Z,15.05
2019-05-23T20:01:52.960Z,14.61
2019-05-23T20:04:16.671Z,14.56
2019-05-23T20:06:40.472Z,14.64
2019-05-23T20:09:09.527Z,14.72
2019-05-23T20:11:35.664Z,14.74
2019-05-23T20:13:59.808Z,14.73
2019-05-23T20:16:23.473Z,14.76
2019-05-23T20:18:47.458Z,14.74
2019-05-23T20:21:11.101Z,14.76
2019-05-23T20:23:34.626Z,14.69
2019-05-23T20:25:58.158Z,14.59
2019-05-23T20:28:23.351Z,14.46
2019-05-23T20:30:54.530Z,14.03
2019-05-23T20:33:18.361Z,14.10
2019-05-23T20:35:41.971Z,13.98
2019-05-23T20:38:06.441Z,13.97
2019-05-23T20:40:30.037Z,13.93
2019-05-23T20:42:53.548Z,13.91
2019-05-23T20:45:17.149Z,14.00
2019-05-23T20:47:40.717Z,13.92
2019-05-23T20:50:05.601Z,13.91
2019-05-23T20:52:30.223Z,13.91
2019-05-23T20:54:53.767Z,13.75
2019-05-23T20:57:17.529Z,13.77
2019-05-23T20:59:41.414Z,13.79
2019-05-23T21:02:05.257Z,13.68
2019-05-23T21:04:28.868Z,13.59
2019-05-23T21:06:52.405Z,13.41
2019-05-23T21:09:16.356Z,13.37
2019-05-23T21:11:39.955Z,13.29
2019-05-23T21:14:03.540Z,13.24
2019-05-23T21:16:27.321Z,13.20
2019-05-23T21:18:50.901Z,13.23
2019-05-23T21:21:14.907Z,13.16
2019-05-23T21:23:38.590Z,13.20
2019-05-23T21:26:04.117Z,13.21
2019-05-23T21:28:27.625Z,13.19
2019-05-23T21:30:51.597Z,13.20
2019-05-23T21:33:15.088Z,13.13
2019-05-23T21:35:38.833Z,13.08
2019-05-23T21:38:02.413Z,13.03
2019-05-23T21:40:37.812Z,12.98
2019-05-23T21:43:01.309Z,12.95
2019-05-23T21:45:24.860Z,12.90
2019-05-23T21:47:48.379Z,12.87
2019-05-23T21:50:12.253Z,12.84
2019-05-23T21:52:35.878Z,12.82
2019-05-23T21:54:59.474Z,12.76
2019-05-23T21:57:22.985Z,12.58
2019-05-23T21:59:46.553Z,12.57
2019-05-23T22:02:18.974Z,12.63
2019-05-23T22:04:44.153Z,12.60
2019-05-23T22:07:08.271Z,12.52
2019-05-23T22:09:31.861Z,12.43
2019-05-23T22:11:55.573Z,12.49
2019-05-23T22:14:19.303Z,12.45
2019-05-23T22:16:42.929Z,12.29
2019-05-23T22:19:08.818Z,12.09
2019-05-23T22:21:32.347Z,11.90
2019-05-23T22:23:56.118Z,11.65
2019-05-23T22:26:20.675Z,11.62
2019-05-23T22:28:45.420Z,11.49
2019-05-23T22:31:09.968Z,11.50
2019-05-23T22:33:35.142Z,11.73
2019-05-23T22:36:00.315Z,11.88
2019-05-23T22:38:23.827Z,11.73
2019-05-23T22:40:47.379Z,11.51
2019-05-23T22:43:20.678Z,11.38
2019-05-23T22:45:36.397Z,11.30
2019-05-23T22:47:59.989Z,11.23
2019-05-23T22:50:23.511Z,11.13
2019-05-23T22:52:47.144Z,11.18
2019-05-23T22:55:10.783Z,11.14
2019-05-23T22:57:34.314Z,11.08
2019-05-23T22:59:57.827Z,11.23
2019-05-23T23:02:21.360Z,11.44
2019-05-23T23:04:45.150Z,11.57
2019-05-23T23:07:08.759Z,11.52
2019-05-23T23:09:32.264Z,11.63
2019-05-23T23:11:56.941Z,11.69
2019-05-23T23:14:20.476Z,11.79
2019-05-23T23:16:44.313Z,11.84
2019-05-23T23:19:08.131Z,11.89
2019-05-23T23:21:31.827Z,11.90
2019-05-23T23:23:55.337Z,11.78
2019-05-23T23:26:18.957Z,11.78
2019-05-23T23:28:42.539Z,11.73
2019-05-23T23:31:06.069Z,11.54
2019-05-23T23:33:30.567Z,11.53
2019-05-23T23:35:54.120Z,11.53
2019-05-23T23:38:17.656Z,11.39
2019-05-23T23:40:41.226Z,11.32
2019-05-23T23:43:04.910Z,11.29
2019-05-23T23:45:46.530Z,11.12
2019-05-23T23:48:28.194Z,10.74
2019-05-23T23:51:09.720Z,10.51
2019-05-23T23:53:51.133Z,10.53
2019-05-23T23:56:32.865Z,10.73
2019-05-23T23:58:55.634Z,10.87
